createdAt,value
2023-01-09T00:02:02.471Z,6.40
2023-01-09T00:04:34.631Z,10.07
2023-01-09T00:07:04.923Z,5.60
2023-01-09T00:09:31.984Z,8.00
2023-01-09T00:12:01.264Z,4.43
2023-01-09T00:14:34.478Z,8.60
2023-01-09T00:17:01.544Z,9.20
2023-01-09T00:19:31.900Z,5.22
2023-01-09T00:22:02.556Z,9.45
2023-01-09T00:24:32.133Z,8.75
2023-01-09T00:27:02.647Z,8.90
2023-01-09T00:29:32.033Z,9.50
2023-01-09T00:31:59.331Z,6.50
2023-01-09T00:34:29.631Z,5.47
2023-01-09T00:36:59.611Z,8.43
2023-01-09T00:39:31.066Z,12.18
2023-01-09T00:41:59.179Z,8.73
2023-01-09T00:44:31.247Z,7.35
2023-01-09T00:47:03.441Z,4.38
2023-01-09T00:49:38.113Z,6.65
2023-01-09T00:52:06.203Z,11.20
2023-01-09T00:54:36.349Z,5.85
2023-01-09T00:57:06.733Z,8.80
2023-01-09T00:59:38.153Z,5.30
2023-01-09T01:02:07.034Z,4.72
2023-01-09T01:04:52.585Z,4.97
2023-01-09T01:07:38.527Z,7.47
2023-01-09T01:10:16.796Z,7.70
2023-01-09T01:12:48.273Z,9.73
2023-01-09T01:15:21.948Z,7.32
2023-01-09T01:17:51.281Z,7.85
2023-01-09T01:20:20.493Z,8.43
2023-01-09T01:22:50.852Z,7.25
2023-01-09T01:25:21.554Z,4.68
2023-01-09T01:27:48.560Z,7.78
2023-01-09T01:30:16.946Z,9.82
2023-01-09T01:32:46.713Z,7.93
2023-01-09T01:35:14.104Z,6.07
2023-01-09T01:37:46.363Z,4.95
2023-01-09T01:40:19.395Z,8.65
2023-01-09T01:42:50.950Z,5.20
2023-01-09T01:45:22.079Z,7.45
2023-01-09T01:48:07.264Z,6.50
2023-01-09T01:50:34.273Z,9.23
2023-01-09T01:53:07.083Z,6.65
2023-01-09T01:55:39.764Z,8.13
2023-01-09T01:58:08.475Z,6.13
2023-01-09T02:00:37.472Z,7.53
2023-01-09T02:03:06.703Z,4.40
2023-01-09T02:05:38.865Z,8.35
2023-01-09T02:08:10.789Z,6.18
2023-01-09T02:10:45.954Z,5.78
2023-01-09T02:13:19.467Z,6.18
2023-01-09T02:16:00.034Z,4.55
2023-01-09T02:18:29.838Z,6.90
2023-01-09T02:20:59.831Z,5.82
2023-01-09T02:23:48.617Z,5.32
2023-01-09T02:26:33.966Z,5.90
2023-01-09T02:29:28.987Z,5.30
2023-01-09T02:32:04.966Z,8.77
2023-01-09T02:35:06.812Z,6.00
2023-01-09T02:37:39.968Z,4.90
2023-01-09T02:40:21.351Z,5.82
2023-01-09T02:42:52.753Z,4.85
2023-01-09T02:45:25.856Z,6.60
2023-01-09T02:47:55.596Z,8.10
2023-01-09T02:50:36.231Z,7.57
2023-01-09T02:53:17.273Z,8.80
2023-01-09T02:55:51.750Z,8.00
2023-01-09T02:58:37.570Z,7.70
2023-01-09T03:01:05.264Z,4.07
2023-01-09T03:03:40.783Z,5.28
2023-01-09T03:06:13.509Z,1.42
2023-01-09T03:08:42.233Z,5.47
2023-01-09T03:11:12.277Z,8.43
2023-01-09T03:13:59.463Z,4.53
2023-01-09T03:16:39.430Z,7.45
2023-01-09T03:19:12.164Z,5.60
2023-01-09T03:21:43.280Z,7.90
2023-01-09T03:24:14.129Z,3.22
2023-01-09T03:26:45.520Z,7.07
2023-01-09T03:29:13.406Z,6.18
2023-01-09T03:31:40.594Z,6.72
2023-01-09T03:34:13.520Z,7.03
2023-01-09T03:36:45.549Z,4.53
2023-01-09T03:39:16.074Z,3.10
2023-01-09T03:41:43.020Z,4.63
2023-01-09T03:44:10.523Z,7.00
2023-01-09T03:46:40.933Z,7.03
2023-01-09T03:49:08.231Z,4.63
2023-01-09T03:51:35.317Z,5.80
2023-01-09T03:54:08.236Z,7.20
2023-01-09T03:56:38.953Z,3.90
2023-01-09T03:59:13.941Z,3.38
2023-01-09T04:01:40.978Z,6.22
2023-01-09T04:04:07.994Z,2.60
2023-01-09T04:06:41.061Z,4.78
2023-01-09T04:09:08.125Z,4.20
2023-01-09T04:11:38.360Z,4.35
2023-01-09T04:14:06.332Z,3.92
2023-01-09T04:16:33.440Z,4.75
2023-01-09T04:19:04.083Z,5.07
2023-01-09T04:21:34.621Z,4.78
2023-01-09T04:24:04.907Z,2.88
2023-01-09T04:26:35.281Z,4.68
2023-01-09T04:29:02.366Z,5.13
2023-01-09T04:31:33.326Z,4.30
2023-01-09T04:34:00.471Z,4.28
2023-01-09T04:36:33.883Z,3.97
2023-01-09T04:39:00.901Z,3.97
2023-01-09T04:41:49.347Z,4.68
2023-01-09T04:44:32.373Z,5.30
2023-01-09T04:47:02.619Z,4.38
2023-01-09T04:49:35.636Z,4.63
2023-01-09T04:52:06.087Z,3.40
2023-01-09T04:54:38.067Z,4.47
2023-01-09T04:57:10.715Z,3.83
2023-01-09T04:59:38.120Z,4.35
2023-01-09T05:02:08.219Z,7.28
2023-01-09T05:04:38.499Z,3.70
2023-01-09T05:07:06.193Z,5.80
2023-01-09T05:09:33.193Z,4.00
2023-01-09T05:12:02.368Z,4.15
2023-01-09T05:14:32.802Z,7.97
2023-01-09T05:17:09.747Z,4.85
2023-01-09T05:19:37.517Z,7.55
2023-01-09T05:22:07.988Z,4.57
2023-01-09T05:24:44.956Z,5.65
2023-01-09T05:27:17.585Z,4.57
2023-01-09T05:30:01.756Z,4.40
2023-01-09T05:32:31.999Z,5.18
2023-01-09T05:35:03.867Z,3.50
2023-01-09T05:37:31.356Z,6.90
2023-01-09T05:39:59.997Z,6.65
2023-01-09T05:42:33.559Z,5.07
2023-01-09T05:45:03.756Z,5.63
2023-01-09T05:47:31.400Z,4.75
2023-01-09T05:50:04.396Z,4.32
2023-01-09T05:52:31.613Z,4.78
2023-01-09T05:55:01.651Z,4.97
2023-01-09T05:57:29.320Z,2.63
2023-01-09T06:00:05.905Z,6.90
2023-01-09T06:02:39.219Z,4.43
2023-01-09T06:05:11.371Z,4.93
2023-01-09T06:07:40.882Z,6.15
2023-01-09T06:10:17.553Z,5.25
2023-01-09T06:12:47.755Z,6.60
2023-01-09T06:15:17.937Z,3.47
2023-01-09T06:17:45.070Z,4.03
2023-01-09T06:20:15.169Z,4.38
2023-01-09T06:22:42.410Z,3.85
2023-01-09T06:25:14.796Z,3.65
2023-01-09T06:27:50.319Z,2.40
2023-01-09T06:30:22.605Z,4.20
2023-01-09T06:32:49.796Z,2.13
2023-01-09T06:35:26.524Z,7.70
2023-01-09T06:37:54.042Z,1.42
2023-01-09T06:40:24.384Z,2.40
2023-01-09T06:42:51.533Z,2.85
2023-01-09T06:45:20.965Z,2.65
2023-01-09T06:47:51.876Z,4.07
2023-01-09T06:50:22.454Z,3.47
2023-01-09T06:52:53.498Z,2.35
2023-01-09T06:55:24.081Z,4.47
2023-01-09T06:57:51.372Z,2.13
2023-01-09T07:00:18.657Z,3.33
2023-01-09T07:02:45.652Z,1.88
2023-01-09T07:05:15.574Z,0.70
2023-01-09T07:07:44.860Z,0.50
2023-01-09T07:10:18.752Z,0.70
2023-01-09T07:12:46.215Z,0.70
2023-01-09T07:15:15.635Z,0.80
2023-01-09T07:17:42.506Z,0.60
2023-01-09T07:20:10.003Z,0.50
2023-01-09T07:22:37.582Z,0.50
2023-01-09T07:25:05.301Z,0.40
2023-01-09T07:27:35.744Z,0.75
2023-01-09T07:30:03.133Z,0.70
2023-01-09T07:32:30.492Z,0.47
2023-01-09T07:34:57.429Z,0.55
2023-01-09T07:37:27.303Z,0.90
2023-01-09T07:39:59.179Z,0.70
2023-01-09T07:42:26.329Z,0.60
2023-01-09T07:44:53.309Z,0.73
2023-01-09T07:47:22.524Z,0.60
2023-01-09T07:49:52.966Z,0.50
2023-01-09T07:52:23.413Z,0.40
2023-01-09T07:54:53.621Z,0.60
2023-01-09T07:57:26.155Z,0.50
2023-01-09T07:59:56.605Z,0.50
2023-01-09T08:02:24.942Z,0.45
2023-01-09T08:04:57.221Z,0.47
2023-01-09T08:07:25.924Z,0.50
2023-01-09T08:09:53.104Z,0.40
2023-01-09T08:12:20.053Z,0.50
2023-01-09T08:14:50.692Z,1.27
2023-01-09T08:17:18.109Z,0.40
2023-01-09T08:19:48.537Z,0.43
2023-01-09T08:22:15.654Z,0.50
2023-01-09T08:24:45.934Z,0.60
2023-01-09T08:27:16.063Z,0.40
2023-01-09T08:29:49.085Z,0.40
2023-01-09T08:32:19.274Z,0.50
2023-01-09T08:34:49.643Z,0.40
2023-01-09T08:37:20.293Z,0.47
2023-01-09T08:39:50.526Z,0.40
2023-01-09T08:42:35.926Z,0.50
2023-01-09T08:45:21.001Z,0.50
2023-01-09T08:47:51.087Z,0.50
2023-01-09T08:50:25.005Z,0.60
2023-01-09T08:52:52.087Z,0.50
2023-01-09T08:55:19.453Z,0.60
2023-01-09T08:57:50.588Z,0.40
2023-01-09T09:00:23.458Z,0.73
2023-01-09T09:03:00.659Z,0.50
2023-01-09T09:05:34.307Z,0.40
2023-01-09T09:08:04.929Z,0.50
2023-01-09T09:10:35.374Z,1.45
2023-01-09T09:13:05.791Z,0.70
2023-01-09T09:15:35.004Z,0.80
2023-01-09T09:18:03.364Z,0.60
2023-01-09T09:20:32.038Z,0.60
2023-01-09T09:23:02.301Z,1.63
2023-01-09T09:25:31.740Z,1.10
2023-01-09T09:28:02.016Z,0.60
2023-01-09T09:30:32.519Z,0.68
2023-01-09T09:32:59.575Z,1.05
2023-01-09T09:35:32.293Z,0.50
2023-01-09T09:38:05.314Z,0.50
2023-01-09T09:40:36.009Z,0.65
2023-01-09T09:43:33.749Z,1.17
2023-01-09T09:46:07.165Z,0.60
2023-01-09T09:48:45.588Z,0.45
2023-01-09T09:51:22.325Z,0.50
2023-01-09T09:53:54.807Z,2.35
2023-01-09T09:56:27.048Z,3.58
2023-01-09T09:58:55.776Z,2.40
2023-01-09T10:01:40.380Z,2.35
2023-01-09T10:04:11.762Z,0.60
2023-01-09T10:06:43.201Z,0.50
2023-01-09T10:09:13.057Z,2.83
2023-01-09T10:12:01.710Z,0.63
2023-01-09T10:14:29.075Z,0.60
2023-01-09T10:16:56.285Z,1.65
2023-01-09T10:19:35.369Z,1.63
2023-01-09T10:22:11.573Z,0.50
2023-01-09T10:24:41.559Z,1.10
2023-01-09T10:27:21.408Z,1.02
2023-01-09T10:29:57.263Z,0.55
2023-01-09T10:32:43.138Z,1.15
2023-01-09T10:35:27.460Z,0.98
2023-01-09T10:37:59.348Z,0.50
2023-01-09T10:40:30.853Z,0.80
2023-01-09T10:43:07.495Z,0.77
2023-01-09T10:45:54.772Z,4.10
2023-01-09T10:48:36.437Z,0.50
2023-01-09T10:51:15.272Z,0.52
2023-01-09T10:53:46.852Z,1.00
2023-01-09T10:56:19.257Z,0.50
2023-01-09T10:58:49.503Z,0.45
2023-01-09T11:01:20.981Z,0.80
2023-01-09T11:03:54.295Z,0.60
2023-01-09T11:06:33.964Z,2.05
2023-01-09T11:09:05.822Z,0.60
2023-01-09T11:11:40.626Z,0.50
2023-01-09T11:14:18.930Z,0.40
2023-01-09T11:16:56.623Z,0.73
2023-01-09T11:19:25.242Z,0.63
2023-01-09T11:22:10.557Z,0.52
2023-01-09T11:24:44.587Z,0.50
2023-01-09T11:27:24.077Z,0.60
2023-01-09T11:30:09.651Z,0.60
2023-01-09T11:32:36.749Z,0.60
2023-01-09T11:35:10.459Z,0.70
2023-01-09T11:37:37.572Z,0.57
2023-01-09T11:40:04.862Z,0.70
2023-01-09T11:42:50.821Z,1.67
2023-01-09T11:45:31.322Z,0.47
2023-01-09T11:47:59.547Z,0.60
2023-01-09T11:50:27.974Z,0.50
2023-01-09T11:53:14.912Z,0.77
2023-01-09T11:55:49.219Z,1.42
2023-01-09T11:58:21.325Z,2.20
2023-01-09T12:00:51.510Z,1.05
2023-01-09T12:03:27.812Z,1.77
2023-01-09T12:06:08.812Z,0.52
2023-01-09T12:08:39.527Z,0.40
2023-01-09T12:11:15.772Z,0.50
2023-01-09T12:13:48.772Z,1.05
2023-01-09T12:16:31.209Z,0.50
2023-01-09T12:19:10.208Z,3.42
2023-01-09T12:21:51.888Z,0.60
2023-01-09T12:24:27.283Z,0.60
2023-01-09T12:27:00.104Z,0.45
2023-01-09T12:29:45.645Z,1.13
2023-01-09T12:32:46.075Z,0.50
2023-01-09T12:35:25.386Z,0.50
2023-01-09T12:38:07.864Z,2.88
2023-01-09T12:40:34.981Z,0.65
2023-01-09T12:43:14.099Z,2.47
2023-01-09T12:45:44.823Z,0.50
2023-01-09T12:48:15.187Z,0.50
2023-01-09T12:51:00.860Z,0.95
2023-01-09T12:53:51.142Z,1.10
2023-01-09T12:56:29.762Z,0.52
2023-01-09T12:59:30.247Z,0.57
2023-01-09T13:02:09.561Z,0.65
2023-01-09T13:04:43.347Z,3.13
2023-01-09T13:07:25.107Z,0.68
2023-01-09T13:10:21.779Z,0.75
2023-01-09T13:12:55.407Z,0.73
2023-01-09T13:15:36.398Z,0.60
2023-01-09T13:18:12.107Z,0.85
2023-01-09T13:20:47.770Z,1.10
2023-01-09T13:23:40.711Z,0.80
2023-01-09T13:26:21.849Z,0.65
2023-01-09T13:28:55.563Z,4.40
2023-01-09T13:31:24.876Z,1.33
2023-01-09T13:34:00.555Z,2.28
2023-01-09T13:36:33.804Z,0.57
2023-01-09T13:39:04.100Z,0.60
2023-01-09T13:41:50.173Z,0.60
2023-01-09T13:44:23.177Z,0.73
2023-01-09T13:46:54.535Z,0.50
2023-01-09T13:49:57.548Z,0.52
2023-01-09T13:52:36.827Z,1.63
2023-01-09T13:55:15.213Z,0.63
2023-01-09T13:58:06.291Z,0.60
2023-01-09T14:00:36.601Z,1.02
2023-01-09T14:03:27.045Z,0.73
2023-01-09T14:05:55.392Z,1.75
2023-01-09T14:08:26.564Z,1.50
2023-01-09T14:11:01.927Z,1.58
2023-01-09T14:13:38.262Z,0.68
2023-01-09T14:16:17.898Z,0.98
2023-01-09T14:18:53.697Z,0.55
2023-01-09T14:21:23.503Z,2.45
2023-01-09T14:24:02.188Z,0.40
2023-01-09T14:27:03.163Z,1.40
2023-01-09T14:29:36.294Z,0.55
2023-01-09T14:32:21.187Z,0.52
2023-01-09T14:34:54.814Z,0.70
2023-01-09T14:37:25.667Z,3.78
2023-01-09T14:39:56.349Z,0.50
2023-01-09T14:42:28.497Z,1.20
2023-01-09T14:45:01.057Z,0.63
2023-01-09T14:47:42.104Z,0.60
2023-01-09T14:50:10.241Z,1.02
2023-01-09T14:52:49.099Z,0.50
2023-01-09T14:55:26.355Z,4.70
2023-01-09T14:57:57.451Z,0.60
2023-01-09T15:00:27.544Z,0.43
2023-01-09T15:02:58.173Z,1.02
2023-01-09T15:05:33.047Z,0.60
2023-01-09T15:08:05.975Z,0.70
2023-01-09T15:10:39.771Z,0.50
2023-01-09T15:13:08.168Z,1.50
2023-01-09T15:15:38.694Z,0.50
2023-01-09T15:18:11.082Z,1.38
2023-01-09T15:20:38.128Z,1.15
2023-01-09T15:23:08.141Z,1.67
2023-01-09T15:25:39.300Z,1.15
2023-01-09T15:28:27.346Z,2.40
2023-01-09T15:31:02.940Z,1.73
2023-01-09T15:33:33.532Z,0.90
2023-01-09T15:36:11.331Z,0.82
2023-01-09T15:38:40.293Z,1.00
2023-01-09T15:41:09.747Z,8.77
2023-01-09T15:43:45.335Z,1.80
2023-01-09T15:46:12.567Z,0.70
2023-01-09T15:48:39.657Z,0.88
2023-01-09T15:51:12.922Z,3.40
2023-01-09T15:53:43.834Z,2.22
2023-01-09T15:56:31.103Z,1.60
2023-01-09T15:59:04.175Z,3.00
2023-01-09T16:01:38.036Z,2.88
2023-01-09T16:04:09.142Z,3.97
2023-01-09T16:06:45.831Z,4.70
2023-01-09T16:09:19.236Z,3.28
2023-01-09T16:11:53.579Z,4.68
2023-01-09T16:14:42.375Z,2.35
2023-01-09T16:17:15.854Z,3.42
2023-01-09T16:19:49.157Z,1.05
2023-01-09T16:22:38.895Z,0.80
2023-01-09T16:25:39.403Z,0.73
2023-01-09T16:28:15.811Z,0.73
2023-01-09T16:30:55.991Z,2.08
2023-01-09T16:33:37.607Z,0.65
2023-01-09T16:36:07.800Z,0.70
2023-01-09T16:38:34.943Z,0.70
2023-01-09T16:41:27.263Z,0.70
2023-01-09T16:43:57.597Z,1.05
2023-01-09T16:46:28.223Z,0.60
2023-01-09T16:48:58.655Z,1.67
2023-01-09T16:51:29.855Z,1.52
2023-01-09T16:54:02.699Z,0.93
2023-01-09T16:56:33.415Z,1.05
2023-01-09T16:59:06.605Z,0.70
2023-01-09T17:01:33.702Z,1.17
2023-01-09T17:04:06.060Z,1.70
2023-01-09T17:06:36.657Z,3.03
2023-01-09T17:09:06.976Z,1.90
2023-01-09T17:11:34.635Z,1.00
2023-01-09T17:14:07.770Z,3.10
2023-01-09T17:16:38.178Z,1.17
2023-01-09T17:19:09.126Z,0.93
2023-01-09T17:21:42.465Z,0.93
2023-01-09T17:24:30.064Z,3.67
2023-01-09T17:27:15.702Z,0.60
2023-01-09T17:29:45.695Z,0.88
2023-01-09T17:32:14.779Z,0.70
2023-01-09T17:34:50.974Z,2.80
2023-01-09T17:37:22.246Z,0.60
2023-01-09T17:39:49.487Z,1.60
2023-01-09T17:42:20.093Z,0.82
2023-01-09T17:44:47.128Z,1.48
2023-01-09T17:47:20.092Z,1.42
2023-01-09T17:49:50.144Z,0.70
2023-01-09T17:52:17.214Z,0.73
2023-01-09T17:54:50.445Z,0.73
2023-01-09T17:57:24.706Z,1.75
2023-01-09T17:59:54.937Z,1.23
2023-01-09T18:02:28.220Z,1.67
2023-01-09T18:05:01.333Z,1.55
2023-01-09T18:07:28.459Z,1.27
2023-01-09T18:10:01.376Z,1.00
2023-01-09T18:12:32.281Z,1.20
2023-01-09T18:15:05.248Z,2.03
2023-01-09T18:17:35.367Z,1.73
2023-01-09T18:20:06.074Z,4.97
2023-01-09T18:22:39.069Z,0.95
2023-01-09T18:25:09.458Z,0.70
2023-01-09T18:27:55.132Z,0.88
2023-01-09T18:30:25.969Z,1.40
2023-01-09T18:32:57.044Z,1.17
2023-01-09T18:35:31.179Z,1.27
2023-01-09T18:38:03.621Z,3.25
2023-01-09T18:40:33.888Z,0.82
2023-01-09T18:43:06.220Z,1.15
2023-01-09T18:45:36.370Z,2.10
2023-01-09T18:51:05.303Z,4.97
2023-01-09T18:53:38.494Z,0.65
2023-01-09T18:56:07.673Z,1.65
2023-01-09T18:58:40.301Z,1.02
2023-01-09T19:01:14.916Z,1.20
2023-01-09T19:03:42.912Z,1.23
2023-01-09T19:06:10.310Z,1.65
2023-01-09T19:08:40.054Z,0.80
2023-01-09T19:11:13.497Z,0.45
2023-01-09T19:13:43.628Z,0.60
2023-01-09T19:16:11.318Z,0.80
2023-01-09T19:18:43.556Z,4.97
2023-01-09T19:21:15.647Z,0.68
2023-01-09T19:23:47.823Z,1.33
2023-01-09T19:26:20.694Z,0.77
2023-01-09T19:28:48.243Z,0.70
2023-01-09T19:31:15.623Z,0.70
2023-01-09T19:33:46.056Z,3.67
2023-01-09T19:36:16.097Z,1.23
2023-01-09T19:38:46.297Z,1.23
2023-01-09T19:41:15.274Z,1.05
2023-01-09T19:43:45.744Z,1.20
2023-01-09T19:46:20.698Z,0.70
2023-01-09T19:48:51.139Z,0.63
2023-01-09T19:51:22.887Z,1.45
2023-01-09T19:56:29.648Z,1.80
2023-01-09T19:59:00.380Z,2.60
2023-01-09T20:01:32.431Z,1.88
2023-01-09T20:04:13.849Z,2.05
2023-01-09T20:06:46.495Z,1.20
2023-01-09T20:09:26.054Z,1.38
2023-01-09T20:11:56.386Z,2.92
2023-01-09T20:14:25.929Z,0.70
2023-01-09T20:16:54.932Z,1.55
2023-01-09T20:19:28.890Z,0.80
2023-01-09T20:21:59.737Z,0.85
2023-01-09T20:24:29.812Z,0.70
2023-01-09T20:26:56.918Z,1.23
2023-01-09T20:29:25.223Z,1.73
2023-01-09T20:31:56.323Z,1.08
2023-01-09T20:34:23.414Z,1.05
2023-01-09T20:36:51.028Z,0.60
2023-01-09T20:39:20.393Z,0.43
2023-01-09T20:41:50.838Z,1.38
2023-01-09T20:44:24.031Z,2.35
2023-01-09T20:46:56.917Z,0.93
2023-01-09T20:49:30.044Z,1.00
2023-01-09T20:51:58.183Z,2.13
2023-01-09T20:54:34.027Z,0.93
2023-01-09T20:57:07.329Z,1.00
2023-01-09T20:59:37.813Z,0.82
2023-01-09T21:02:09.090Z,0.60
2023-01-09T21:04:39.253Z,1.08
2023-01-09T21:07:11.388Z,0.80
2023-01-09T21:09:44.218Z,0.80
2023-01-09T21:12:34.950Z,0.68
2023-01-09T21:15:08.421Z,0.57
2023-01-09T21:17:39.498Z,0.60
2023-01-09T21:20:10.196Z,1.15
2023-01-09T21:22:40.665Z,0.52
2023-01-09T21:25:11.574Z,0.73
2023-01-09T21:27:51.863Z,1.33
2023-01-09T21:30:24.983Z,0.65
2023-01-09T21:32:55.060Z,1.23
2023-01-09T21:35:27.770Z,1.65
2023-01-09T21:38:01.054Z,2.83
2023-01-09T21:40:34.016Z,2.83
2023-01-09T21:43:19.532Z,1.52
2023-01-09T21:46:05.431Z,1.20
2023-01-09T21:49:04.216Z,0.82
2023-01-09T21:51:36.844Z,0.68
2023-01-09T21:54:12.332Z,2.25
2023-01-09T21:56:39.616Z,0.77
2023-01-09T21:59:06.660Z,1.05
2023-01-09T22:01:36.987Z,0.60
2023-01-09T22:04:10.047Z,0.75
2023-01-09T22:06:39.645Z,0.40
2023-01-09T22:09:10.461Z,0.60
2023-01-09T22:11:47.288Z,0.73
2023-01-09T22:14:15.982Z,0.65
2023-01-09T22:16:44.070Z,0.52
2023-01-09T22:19:11.851Z,0.70
2023-01-09T22:21:41.253Z,0.43
2023-01-09T22:24:08.214Z,0.80
2023-01-09T22:26:38.558Z,0.50
2023-01-09T22:29:08.760Z,0.50
2023-01-09T22:31:35.855Z,0.50
2023-01-09T22:34:02.965Z,0.60
2023-01-09T22:36:34.529Z,0.50
2023-01-09T22:39:07.954Z,0.60
2023-01-09T22:41:39.775Z,0.60
2023-01-09T22:44:06.769Z,0.60
2023-01-09T22:46:34.180Z,1.55
2023-01-09T22:49:02.355Z,0.70
2023-01-09T22:51:36.036Z,0.60
2023-01-09T22:54:06.332Z,0.68
2023-01-09T22:56:36.535Z,0.50
2023-01-09T22:59:09.685Z,0.50
2023-01-09T23:01:39.178Z,0.60
2023-01-09T23:04:08.865Z,0.55
2023-01-09T23:06:35.917Z,1.05
2023-01-09T23:09:09.485Z,0.70
2023-01-09T23:11:58.159Z,0.60
2023-01-09T23:14:28.359Z,0.40
2023-01-09T23:16:59.120Z,0.60
2023-01-09T23:19:34.691Z,1.15
2023-01-09T23:22:05.251Z,0.50
2023-01-09T23:24:35.331Z,0.60
2023-01-09T23:27:09.132Z,0.75
2023-01-09T23:29:40.367Z,2.08
2023-01-09T23:32:13.096Z,1.08
2023-01-09T23:34:46.094Z,0.85
2023-01-09T23:37:15.781Z,0.68
2023-01-09T23:39:45.843Z,0.60
2023-01-09T23:42:34.727Z,0.70
2023-01-09T23:45:04.566Z,0.60
2023-01-09T23:47:35.010Z,2.30
2023-01-09T23:50:02.991Z,0.77
2023-01-09T23:52:33.478Z,0.57
2023-01-09T23:55:00.565Z,0.60
2023-01-09T23:57:30.727Z,0.70
2023-01-09T23:59:57.924Z,0.80
